DABTDABC

Guest
Details From DABT - BATNA
To DABC - MOHAMED BOUDIAF INTL
Flight Number -
Tags generated
Created
Modified
Stats Distance 35 nm / 65 km
Max Altitude 700 ft / 213 m
Waypoints 3
Social Downloads 18
Likes 0
Share VATSIM

Download

Looking for another format? Having issues loading an existing format? Contact us
Advertisement - Login to hide

Notes

Basic altitude profile: - Ascent Rate: 2500ft/min - Ascent Speed: 250kts - Cruise Altitude: 80ft - Cruise Speed: 420kts - Descent Rate: 1500ft/min - Descent Speed: 250kts Options: - Use NATs: yes - Use PACOTS: yes - Use low airways: yes - Use high airways: yes

Route

DABT BTN DABC

ID Type Via Altitude Latitude Longitude Leg Dist Tot Dist Heading (true) Name
O DABT APT - 0 ft / 0 m 35.75210˚ 6.30859˚ - 0 nm - BATNA
BTN VOR - 700 ft / 213 m 35.77153˚ 6.34379˚ 2 nm 2 nm 56° / 56° BATNA VOR-DME
O DABC APT - 0 ft / 0 m 36.27604˚ 6.62028˚ 33 nm 35 nm 24° / 24° MOHAMED BOUDIAF INTL

Altitude Profile

Advertisement - Login to hide

DABT

Details ICAO DABT (BLJ)
Name BATNA
Region Algeria
Timezone Africa/Algiers (UTC+1.0)
Stats Elevation 2,697 ft / 822 m (AMSL)
Location 35.752104° 6.308589°
Runways 1
Magnetic Variation 1.650° E

METAR

DABT 111700Z 21017KT 8000 FEW023 SCT090 BKN200 13/02 Q1008

Decode

TAF

TAF DABT 111100Z 1112/1212 22023KT 9999 FEW023 BKN200 PROB40 TEMPO 1112/1120 FEW026TCU TEMPO 1112/1122 20015G30KT

Decode

Departure Runways

ID Width Length Bearing (true) Bearing (mag) Surface Threshold Offset Overrun Length
05 148 ft / 45 m 9,837 ft / 2,998 m 54.80° 53.15° Asphalt 0 ft / 0 m 350 ft / 107 m
23 148 ft / 45 m 9,837 ft / 2,998 m 234.81° 233.16° Asphalt 0 ft / 0 m 375 ft / 114 m

DABC

Details ICAO DABC (CZL)
Name MOHAMED BOUDIAF INTL
Region Algeria
Timezone Africa/Algiers (UTC+1.0)
Stats Elevation 2,265 ft / 690 m (AMSL)
Location 36.276042° 6.620278°
Runways 2
Magnetic Variation 1.730° E

METAR

DABC 111700Z 21010KT 3500 DRDU FEW026 BKN090 14/02 Q1008

Decode

TAF

TAF DABC 111100Z 1112/1212 22012KT 9999 FEW026 BKN200 PROB40 TEMPO 1112/1123 22015G25KT BECMG 1206/1210 19008KT

Decode

Destination Runways

ID Width Length Bearing (true) Bearing (mag) Surface Threshold Offset Overrun Length
14 148 ft / 45 m 7,886 ft / 2,404 m 136.03° 134.30° Asphalt 0 ft / 0 m 340 ft / 104 m
16 148 ft / 45 m 9,871 ft / 3,009 m 159.14° 157.41° Asphalt 0 ft / 0 m 400 ft / 122 m
32 148 ft / 45 m 7,886 ft / 2,404 m 316.04° 314.31° Asphalt 0 ft / 0 m 200 ft / 61 m
34 148 ft / 45 m 9,871 ft / 3,009 m 339.15° 337.42° Asphalt 0 ft / 0 m 400 ft / 122 m

Approach Navaids

Runway Type Ident Frequency Range Bearing (true) Bearing (mag) Slope Elevation
32 Localiser CT 109.30 MHz 18 nm / 33 km 316.21° 314.48° - 2,303 ft / 702 m (AMSL)
32 Glidescope CT 109.30 MHz 10 nm / 19 km 316.03° 314.30° 3.00° 2,303 ft / 702 m (AMSL)